Van Buren, IN

8:41 PM EDT on May 05, 2015 (GMT -0400)
Fort Wayne International | | Change Station
CLOSE
Current Station
Airport
Location: Fort Wayne,
Elevation: 827 ft
Nearby Weather Stations

Elev 827 ft 40.98 °N, 85.19 °W | Updated 30 minutes ago

Mostly Cloudy
Mostly Cloudy
60 °F
Feels Like 60 °F
N
16
Wind Variable Wind from ENE

Today
High -- | Low -- °F
--% Chance of Precip.
Yesterday
High -- | Low -- °F
Precip. -- in
6:36 AM 8:41 PM
Waning Gibbous, 96% visible
Pressure 30.19 in
Visibility 5.0 miles
Clouds Mostly Cloudy 800 ft
Mostly Cloudy 25000 ft
Dew Point 57 °F
Humidity 90%
Rainfall 0.31 in
Snow Depth Not available.
UV 0 out of 12
Pollen 2.40 out of 12
Air Quality Not available.
Flu Activity Local Activity
SPECI KFWA 060011Z 07014KT 5SM BR BKN008 BKN250 16/14 A3019 RMK AO2 T01560139 $

More Conditions Fewer Conditions

Pressure 30.19 in
Visibility 5.0 miles
Clouds Mostly Cloudy 800 ft
Mostly Cloudy 25000 ft
Dew Point 57 °F
Humidity 90%
Rainfall 0.31 in
Snow Depth Not available.
UV 0 out of 12
Pollen 2.40 out of 12
Air Quality Not available.
Flu Activity Local Activity
SPECI KFWA 060011Z 07014KT 5SM BR BKN008 BKN250 16/14 A3019 RMK AO2 T01560139 $

More Conditions Fewer Conditions

10-Day Weather Forecast

Almanac

Astronomy

May. 05, 2015 Rise Set
Actual Time
Civil Twilight
Nautical Twilight
Astronomical Twilight
Moon
Length of Visible Light
Length of Day
Tomorrow will be .
, % of the Moon is Illuminated

Today's Extremes

State Highs State Lows

Community

WunderPhotos

Upload Photos

1,819,025 photos uploaded!

WunderBlogs® & News

Nearby

Air Quality

  Air Quality AQ Index Pollutant
Not available.

Snow Depth

Station Depth Elevation

Earthquake Activity

City Distance Mag. Time & Date
Minimum magnitude displayed is 2.5.

Coastal Water Temperatures

Place Temperature

Stations

Nearby Weather Stations

Station Location Temp. Windchill Dew Point Humidity Wind Precip. Elev Updated Type